createdAt,value
2022-08-21T00:02:17.802Z,99.90
2022-08-21T00:04:57.466Z,1.00
2022-08-21T00:07:28.157Z,99.90
2022-08-21T00:09:57.276Z,88.40
2022-08-21T00:12:26.785Z,1.00
2022-08-21T00:14:58.229Z,99.90
2022-08-21T00:17:28.009Z,1.00
2022-08-21T00:19:57.022Z,93.50
2022-08-21T00:22:26.093Z,99.90
2022-08-21T00:24:55.219Z,1.00
2022-08-21T00:27:24.436Z,1.00
2022-08-21T00:29:54.429Z,1.00
2022-08-21T00:32:27.719Z,1.00
2022-08-21T00:34:57.545Z,99.90
2022-08-21T00:37:26.983Z,1.00
2022-08-21T00:39:56.026Z,99.90
2022-08-21T00:42:25.328Z,1.00
2022-08-21T00:44:54.603Z,1.00
2022-08-21T00:47:25.158Z,1.00
2022-08-21T00:49:54.343Z,1.00
2022-08-21T00:52:29.191Z,1.00
2022-08-21T00:55:01.086Z,1.00
2022-08-21T00:57:36.185Z,1.00
2022-08-21T01:00:14.561Z,21.30
2022-08-21T01:02:46.101Z,99.90
2022-08-21T01:05:16.069Z,99.90
2022-08-21T01:07:45.984Z,99.90
2022-08-21T01:10:23.729Z,99.90
2022-08-21T01:12:57.380Z,99.90
2022-08-21T01:15:33.101Z,99.90
2022-08-21T01:18:05.147Z,99.90
2022-08-21T01:20:35.708Z,99.90
2022-08-21T01:23:08.515Z,99.90
2022-08-21T01:25:37.818Z,99.90
2022-08-21T01:28:15.206Z,99.90
2022-08-21T01:30:46.483Z,99.90
2022-08-21T01:33:15.569Z,99.90
2022-08-21T01:35:44.522Z,99.90
2022-08-21T01:38:15.076Z,99.90
2022-08-21T01:40:43.855Z,99.90
2022-08-21T01:43:12.644Z,99.90
2022-08-21T01:45:41.512Z,99.90
2022-08-21T01:48:10.506Z,99.90
2022-08-21T01:50:40.173Z,99.90
2022-08-21T01:53:09.301Z,99.90
2022-08-21T01:55:39.441Z,99.90
2022-08-21T01:58:08.227Z,99.90
2022-08-21T02:00:37.298Z,99.90
2022-08-21T02:03:06.811Z,99.90
2022-08-21T02:05:35.590Z,99.90
2022-08-21T02:08:05.281Z,99.90
2022-08-21T02:10:35.315Z,99.90
2022-08-21T02:13:08.275Z,99.90
2022-08-21T02:15:42.037Z,99.90
2022-08-21T02:18:11.204Z,99.90
2022-08-21T02:20:45.072Z,99.90
2022-08-21T02:23:15.366Z,99.90
2022-08-21T02:25:44.995Z,99.90
2022-08-21T02:28:17.372Z,99.90
2022-08-21T02:30:49.991Z,99.90
2022-08-21T02:33:20.010Z,99.90
2022-08-21T02:35:51.525Z,99.90
2022-08-21T02:38:24.555Z,99.90
2022-08-21T02:40:55.803Z,99.90
2022-08-21T02:43:29.342Z,99.90
2022-08-21T02:46:00.555Z,99.90
2022-08-21T02:48:32.884Z,99.90
2022-08-21T02:51:06.363Z,99.90
2022-08-21T02:53:36.840Z,99.90
2022-08-21T02:56:09.593Z,99.90
2022-08-21T02:58:44.607Z,99.90
2022-08-21T03:01:15.091Z,99.90
2022-08-21T03:03:47.710Z,99.90
2022-08-21T03:06:19.086Z,99.90
2022-08-21T03:08:48.525Z,99.90
2022-08-21T03:11:18.512Z,99.90
2022-08-21T03:13:49.049Z,99.90
2022-08-21T03:16:17.871Z,99.90
2022-08-21T03:18:47.154Z,99.90
2022-08-21T03:21:16.020Z,99.90
2022-08-21T03:23:44.827Z,99.90
2022-08-21T03:26:13.880Z,99.90
2022-08-21T03:28:42.854Z,99.90
2022-08-21T03:31:13.139Z,99.90
2022-08-21T03:33:41.960Z,99.90
2022-08-21T03:36:11.738Z,99.90
2022-08-21T03:38:40.686Z,99.90
2022-08-21T03:41:10.189Z,99.90
2022-08-21T03:43:39.624Z,99.90
2022-08-21T03:46:09.581Z,99.90
2022-08-21T03:48:42.386Z,99.90
2022-08-21T03:51:11.342Z,99.90
2022-08-21T03:53:40.195Z,99.90
2022-08-21T03:56:09.525Z,99.90
2022-08-21T03:58:39.401Z,99.90
2022-08-21T04:01:09.270Z,99.90
2022-08-21T04:03:40.860Z,99.90
2022-08-21T04:06:10.425Z,99.90
2022-08-21T04:08:39.299Z,99.90
2022-08-21T04:11:08.752Z,99.90
2022-08-21T04:13:44.311Z,99.90
2022-08-21T04:16:14.692Z,99.90
2022-08-21T04:18:44.951Z,99.90
2022-08-21T04:21:14.769Z,99.90
2022-08-21T04:23:44.105Z,99.90
2022-08-21T04:26:13.220Z,99.90
2022-08-21T04:28:42.055Z,99.90
2022-08-21T04:31:13.356Z,99.90
2022-08-21T04:33:42.309Z,99.90
2022-08-21T04:36:13.479Z,99.90
2022-08-21T04:38:44.485Z,99.90
2022-08-21T04:41:13.673Z,99.90
2022-08-21T04:43:42.631Z,99.90
2022-08-21T04:46:13.642Z,99.90
2022-08-21T04:48:42.863Z,99.90
2022-08-21T04:51:18.904Z,99.90
2022-08-21T04:53:53.292Z,99.90
2022-08-21T04:56:27.029Z,99.90
2022-08-21T04:58:59.724Z,99.90
2022-08-21T05:01:33.135Z,99.90
2022-08-21T05:04:05.458Z,99.90
2022-08-21T05:06:42.128Z,99.90
2022-08-21T05:09:14.958Z,99.90
2022-08-21T05:11:44.614Z,99.90
2022-08-21T05:14:14.703Z,99.90
2022-08-21T05:16:44.955Z,99.90
2022-08-21T05:19:14.227Z,99.90
2022-08-21T05:21:46.728Z,99.90
2022-08-21T05:24:15.632Z,99.90
2022-08-21T05:26:46.058Z,99.90
2022-08-21T05:29:16.624Z,99.90
2022-08-21T05:31:46.235Z,99.90
2022-08-21T05:34:16.311Z,99.90
2022-08-21T05:36:47.401Z,99.90
2022-08-21T05:39:16.919Z,99.90
2022-08-21T05:41:45.717Z,99.90
2022-08-21T05:44:14.387Z,99.90
2022-08-21T05:46:43.282Z,99.90
2022-08-21T05:49:13.397Z,99.90
2022-08-21T05:51:43.684Z,99.90
2022-08-21T05:54:13.827Z,99.90
2022-08-21T05:56:45.613Z,99.90
2022-08-21T05:59:14.372Z,99.90
2022-08-21T06:01:43.338Z,99.90
2022-08-21T06:04:12.119Z,99.90
2022-08-21T06:06:41.342Z,99.90
2022-08-21T06:09:10.225Z,99.90
2022-08-21T06:11:40.561Z,99.90
2022-08-21T06:14:09.467Z,99.90
2022-08-21T06:16:38.315Z,99.90
2022-08-21T06:19:07.004Z,99.90
2022-08-21T06:21:35.840Z,99.90
2022-08-21T06:24:05.757Z,99.90
2022-08-21T06:26:34.600Z,99.90
2022-08-21T06:29:05.275Z,99.90
2022-08-21T06:31:34.102Z,99.90
2022-08-21T06:34:02.862Z,99.90
2022-08-21T06:36:31.809Z,99.90
2022-08-21T06:39:01.033Z,99.90
2022-08-21T06:41:29.842Z,99.90
2022-08-21T06:43:59.623Z,99.90
2022-08-21T06:46:34.537Z,99.90
2022-08-21T06:49:03.277Z,99.90
2022-08-21T06:51:34.572Z,99.90
2022-08-21T06:54:03.500Z,99.90
2022-08-21T06:56:32.456Z,99.90
2022-08-21T06:59:01.387Z,99.90
2022-08-21T07:01:31.972Z,99.90
2022-08-21T07:04:01.217Z,99.90
2022-08-21T07:06:30.009Z,99.90
2022-08-21T07:09:03.849Z,99.90
2022-08-21T07:11:32.753Z,99.90
2022-08-21T07:14:11.381Z,99.90
2022-08-21T07:16:51.825Z,99.90
2022-08-21T07:19:21.229Z,99.90
2022-08-21T07:21:50.283Z,99.90
2022-08-21T07:24:19.152Z,99.90
2022-08-21T07:26:47.945Z,99.90
2022-08-21T07:29:17.096Z,99.90
2022-08-21T07:31:45.873Z,99.90
2022-08-21T07:34:16.804Z,99.90
2022-08-21T07:36:45.692Z,99.90
2022-08-21T07:39:15.246Z,99.90
2022-08-21T07:41:44.037Z,94.80
2022-08-21T07:44:12.948Z,92.80
2022-08-21T07:46:41.774Z,93.20
2022-08-21T07:49:10.673Z,91.50
2022-08-21T07:51:41.033Z,90.50
2022-08-21T07:54:10.147Z,85.80
2022-08-21T07:56:46.732Z,87.10
2022-08-21T07:59:15.585Z,81.80
2022-08-21T08:01:44.371Z,73.80
2022-08-21T08:04:13.255Z,69.80
2022-08-21T08:06:44.138Z,73.10
2022-08-21T08:09:12.889Z,64.90
2022-08-21T08:11:45.447Z,71.70
2022-08-21T08:14:14.411Z,72.40
2022-08-21T08:16:43.608Z,69.80
2022-08-21T08:19:12.575Z,67.40
2022-08-21T08:21:43.131Z,54.30
2022-08-21T08:24:19.514Z,56.30
2022-08-21T08:26:53.801Z,55.40
2022-08-21T08:29:23.766Z,53.30
2022-08-21T08:31:53.129Z,49.20
2022-08-21T08:34:23.517Z,45.00
2022-08-21T08:36:58.924Z,45.20
2022-08-21T08:39:29.568Z,38.30
2022-08-21T08:42:33.119Z,39.30
2022-08-21T08:45:07.321Z,31.40
2022-08-21T08:47:41.107Z,38.40
2022-08-21T08:50:19.157Z,32.70
2022-08-21T08:52:58.734Z,31.10
2022-08-21T08:55:37.139Z,31.10
2022-08-21T08:58:06.751Z,29.80
2022-08-21T09:00:35.757Z,28.70
2022-08-21T09:03:06.298Z,30.10
2022-08-21T09:05:48.300Z,31.60
2022-08-21T09:08:51.141Z,30.70
2022-08-21T09:11:31.241Z,25.60
2022-08-21T09:14:15.318Z,24.30
2022-08-21T09:17:01.016Z,24.00
2022-08-21T09:19:57.825Z,25.60
2022-08-21T09:22:42.328Z,24.10
2022-08-21T09:25:24.161Z,22.50
2022-08-21T09:27:53.750Z,23.00
2022-08-21T09:30:31.777Z,21.90
2022-08-21T09:33:01.376Z,18.80
2022-08-21T09:35:30.351Z,18.90
2022-08-21T09:38:04.031Z,18.20
2022-08-21T09:40:42.555Z,17.10
2022-08-21T09:43:23.136Z,16.10
2022-08-21T09:46:06.936Z,16.30
2022-08-21T09:48:48.864Z,15.30
2022-08-21T09:51:21.250Z,15.90
2022-08-21T09:53:54.903Z,16.50
2022-08-21T09:56:53.169Z,15.70
2022-08-21T09:59:36.065Z,16.50
2022-08-21T10:02:30.397Z,16.20
2022-08-21T10:05:03.212Z,13.30
2022-08-21T10:07:34.937Z,13.10
2022-08-21T10:10:09.578Z,12.70
2022-08-21T10:12:55.367Z,13.70
2022-08-21T10:15:41.336Z,10.60
2022-08-21T10:18:22.471Z,11.30
2022-08-21T10:21:04.676Z,11.10
2022-08-21T10:23:53.584Z,10.50
2022-08-21T10:26:39.984Z,9.40
2022-08-21T10:29:25.968Z,8.50
2022-08-21T10:32:22.431Z,7.80
2022-08-21T10:35:09.635Z,6.60
2022-08-21T10:37:56.849Z,6.50
2022-08-21T10:40:33.989Z,7.30
2022-08-21T10:43:18.880Z,6.10
2022-08-21T10:46:05.123Z,6.00
2022-08-21T10:48:44.586Z,6.40
2022-08-21T10:51:27.009Z,4.50
2022-08-21T10:54:07.865Z,2.90
2022-08-21T10:56:44.014Z,1.00
2022-08-21T10:59:38.016Z,1.00
2022-08-21T11:02:19.699Z,1.60
2022-08-21T11:04:59.305Z,1.00
2022-08-21T11:07:37.758Z,1.00
2022-08-21T11:10:19.946Z,1.00
2022-08-21T11:12:55.943Z,1.00
2022-08-21T11:15:48.664Z,1.00
2022-08-21T11:18:28.824Z,1.00
2022-08-21T11:21:17.923Z,1.00
2022-08-21T11:23:55.561Z,1.00
2022-08-21T11:26:37.328Z,1.00
2022-08-21T11:29:18.960Z,1.00
2022-08-21T11:32:08.180Z,1.00
2022-08-21T11:35:00.540Z,1.00
2022-08-21T11:37:51.158Z,1.00
2022-08-21T11:40:45.102Z,1.00
2022-08-21T11:43:31.765Z,1.00
2022-08-21T11:46:16.386Z,1.00
2022-08-21T11:49:06.519Z,1.00
2022-08-21T11:51:43.340Z,1.00
2022-08-21T11:54:28.410Z,1.00
2022-08-21T11:57:06.361Z,1.00
2022-08-21T11:59:43.420Z,1.00
2022-08-21T12:02:25.689Z,1.00
2022-08-21T12:05:08.657Z,1.00
2022-08-21T12:07:43.523Z,1.00
2022-08-21T12:10:17.126Z,1.00
2022-08-21T12:12:47.532Z,1.00
2022-08-21T12:15:31.172Z,1.00
2022-08-21T12:18:03.844Z,1.00
2022-08-21T12:20:50.064Z,1.00
2022-08-21T12:23:30.783Z,1.00
2022-08-21T12:26:24.790Z,1.00
2022-08-21T12:29:05.099Z,1.00
2022-08-21T12:31:33.944Z,1.00
2022-08-21T12:34:08.021Z,1.00
2022-08-21T12:36:50.597Z,1.00
2022-08-21T12:39:28.744Z,1.00
2022-08-21T12:42:03.311Z,1.00
2022-08-21T12:44:42.399Z,1.00
2022-08-21T12:47:20.211Z,1.00
2022-08-21T12:50:07.017Z,1.00
2022-08-21T12:52:42.497Z,1.00
2022-08-21T12:55:18.075Z,1.00
2022-08-21T12:57:47.070Z,1.00
2022-08-21T13:00:23.936Z,1.00
2022-08-21T13:02:55.446Z,1.00
2022-08-21T13:05:34.306Z,1.00
2022-08-21T13:08:07.719Z,1.00
2022-08-21T13:10:39.977Z,1.00
2022-08-21T13:13:25.024Z,1.00
2022-08-21T13:16:04.196Z,1.00
2022-08-21T13:18:38.076Z,1.00
2022-08-21T13:21:13.364Z,1.00
2022-08-21T13:23:42.932Z,1.00
2022-08-21T13:26:23.321Z,1.00
2022-08-21T13:28:52.669Z,1.00
2022-08-21T13:31:31.824Z,1.00
2022-08-21T13:34:00.776Z,1.00
2022-08-21T13:36:36.678Z,1.00
2022-08-21T13:39:09.146Z,1.00
2022-08-21T13:41:44.398Z,1.00
2022-08-21T13:44:27.571Z,1.00
2022-08-21T13:46:57.302Z,1.00
2022-08-21T13:49:33.744Z,1.00
2022-08-21T13:52:02.944Z,1.00
2022-08-21T13:54:38.133Z,1.00
2022-08-21T13:57:20.637Z,1.00
2022-08-21T13:59:50.020Z,1.00
2022-08-21T14:02:26.343Z,1.00
2022-08-21T14:05:00.623Z,1.00
2022-08-21T14:07:36.852Z,1.00
2022-08-21T14:10:08.151Z,1.00
2022-08-21T14:12:44.926Z,1.00
2022-08-21T14:15:17.677Z,1.00
2022-08-21T14:17:47.361Z,1.00
2022-08-21T14:20:32.808Z,1.00
2022-08-21T14:23:02.587Z,1.00
2022-08-21T14:25:40.833Z,1.00
2022-08-21T14:28:28.715Z,1.00
2022-08-21T14:30:59.301Z,1.00
2022-08-21T14:33:36.369Z,1.00
2022-08-21T14:36:06.544Z,1.00
2022-08-21T14:38:40.386Z,1.00
2022-08-21T14:41:19.979Z,1.00
2022-08-21T14:43:51.127Z,1.00
2022-08-21T14:46:51.186Z,1.00
2022-08-21T14:49:29.466Z,1.00
2022-08-21T14:52:04.155Z,1.00
2022-08-21T14:54:39.493Z,1.00
2022-08-21T14:57:16.782Z,1.00
2022-08-21T14:59:47.472Z,1.00
2022-08-21T15:02:16.785Z,1.00
2022-08-21T15:04:46.188Z,1.00
2022-08-21T15:07:15.300Z,1.00
2022-08-21T15:09:44.379Z,1.00
2022-08-21T15:12:16.688Z,1.00
2022-08-21T15:14:47.155Z,1.00
2022-08-21T15:17:16.410Z,1.00
2022-08-21T15:19:45.318Z,1.00
2022-08-21T15:22:15.347Z,1.00
2022-08-21T15:24:51.639Z,1.00
2022-08-21T15:27:21.652Z,1.00
2022-08-21T15:29:54.462Z,1.00
2022-08-21T15:32:28.401Z,1.00
2022-08-21T15:34:58.764Z,1.00
2022-08-21T15:37:28.128Z,1.00
2022-08-21T15:39:56.969Z,1.00
2022-08-21T15:42:29.204Z,1.00
2022-08-21T15:45:00.357Z,1.00
2022-08-21T15:47:36.529Z,1.00
2022-08-21T15:50:10.541Z,1.00
2022-08-21T15:52:39.931Z,1.00
2022-08-21T15:55:09.964Z,1.00
2022-08-21T15:57:44.844Z,1.00
2022-08-21T16:00:29.053Z,1.00
2022-08-21T16:03:01.494Z,1.00
2022-08-21T16:05:30.521Z,1.00
2022-08-21T16:07:59.422Z,1.00
2022-08-21T16:10:30.182Z,1.00
2022-08-21T16:13:05.355Z,1.00
2022-08-21T16:15:35.798Z,1.00
2022-08-21T16:18:04.809Z,1.00
2022-08-21T16:20:33.710Z,1.00
2022-08-21T16:23:02.807Z,1.00
2022-08-21T16:25:34.199Z,1.00
2022-08-21T16:28:08.054Z,1.00
2022-08-21T16:30:40.929Z,1.00
2022-08-21T16:33:20.425Z,1.00
2022-08-21T16:35:49.424Z,1.00
2022-08-21T16:38:18.455Z,1.00
2022-08-21T16:40:47.576Z,1.00
2022-08-21T16:43:17.606Z,1.00
2022-08-21T16:48:57.247Z,1.00
2022-08-21T16:51:29.488Z,1.00
2022-08-21T16:54:00.449Z,1.00
2022-08-21T16:56:31.084Z,1.00
2022-08-21T16:59:01.695Z,1.00
2022-08-21T17:01:41.847Z,1.00
2022-08-21T17:04:12.467Z,1.00
2022-08-21T17:06:41.518Z,1.00
2022-08-21T17:09:10.680Z,1.00
2022-08-21T17:11:44.149Z,1.00
2022-08-21T17:14:17.134Z,1.00
2022-08-21T17:16:51.041Z,1.00
2022-08-21T17:19:22.519Z,1.00
2022-08-21T17:21:52.665Z,1.00
2022-08-21T17:24:22.134Z,1.00
2022-08-21T17:26:51.999Z,1.00
2022-08-21T17:29:27.185Z,1.00
2022-08-21T17:31:57.374Z,1.00
2022-08-21T17:34:28.864Z,1.00
2022-08-21T17:37:01.187Z,1.00
2022-08-21T17:39:30.199Z,1.00
2022-08-21T17:42:06.039Z,1.00
2022-08-21T17:44:38.799Z,1.00
2022-08-21T17:47:10.143Z,3.00
2022-08-21T17:49:40.896Z,1.20
2022-08-21T17:52:10.802Z,3.90
2022-08-21T17:54:41.321Z,2.30
2022-08-21T17:57:17.364Z,4.50
2022-08-21T17:59:46.947Z,4.90
2022-08-21T18:02:17.926Z,7.60
2022-08-21T18:04:52.236Z,7.40
2022-08-21T18:07:32.081Z,7.40
2022-08-21T18:10:02.541Z,7.80
2022-08-21T18:12:33.505Z,10.90
2022-08-21T18:15:04.021Z,12.40
2022-08-21T18:17:34.799Z,14.60
2022-08-21T18:20:08.287Z,18.70
2022-08-21T18:22:37.359Z,19.40
2022-08-21T18:25:07.781Z,19.70
2022-08-21T18:27:37.320Z,21.10
2022-08-21T18:30:08.072Z,24.20
2022-08-21T18:32:37.789Z,27.20
2022-08-21T18:35:11.310Z,1.00
2022-08-21T18:37:40.660Z,1.00
2022-08-21T18:40:13.258Z,1.00
2022-08-21T18:42:55.784Z,1.00
2022-08-21T18:45:26.150Z,8.10
2022-08-21T18:47:59.387Z,13.50
2022-08-21T18:50:31.875Z,7.80
2022-08-21T18:53:01.061Z,8.90
2022-08-21T18:55:30.735Z,13.30
2022-08-21T18:58:00.628Z,18.90
2022-08-21T19:00:38.113Z,23.70
2022-08-21T19:03:14.160Z,24.00
2022-08-21T19:05:52.051Z,18.50
2022-08-21T19:08:27.426Z,30.20
2022-08-21T19:11:02.579Z,29.30
2022-08-21T19:13:31.996Z,44.20
2022-08-21T19:16:03.988Z,45.90
2022-08-21T19:18:38.929Z,42.50
2022-08-21T19:21:10.320Z,42.80
2022-08-21T19:23:40.364Z,40.60
2022-08-21T19:26:12.586Z,50.40
2022-08-21T19:28:48.271Z,72.00
2022-08-21T19:31:23.634Z,70.10
2022-08-21T19:34:17.384Z,72.50
2022-08-21T19:36:48.460Z,84.90
2022-08-21T19:39:19.343Z,79.40
2022-08-21T19:41:56.128Z,79.60
2022-08-21T19:44:29.405Z,77.90
2022-08-21T19:47:00.822Z,75.70
2022-08-21T19:49:36.788Z,73.80
2022-08-21T19:52:12.957Z,88.00
2022-08-21T19:54:57.186Z,71.00
2022-08-21T19:57:26.813Z,90.20
2022-08-21T19:59:56.037Z,79.80
2022-08-21T20:02:25.213Z,87.80
2022-08-21T20:04:55.113Z,97.90
2022-08-21T20:07:26.876Z,99.90
2022-08-21T20:09:56.913Z,99.90
2022-08-21T20:12:26.390Z,92.70
2022-08-21T20:14:56.630Z,97.70
2022-08-21T20:17:26.440Z,96.60
2022-08-21T20:19:55.751Z,95.80
2022-08-21T20:22:26.460Z,91.90
2022-08-21T20:24:55.468Z,95.60
2022-08-21T20:27:27.406Z,97.90
2022-08-21T20:29:57.291Z,98.30
2022-08-21T20:32:27.973Z,98.20
2022-08-21T20:34:59.115Z,97.10
2022-08-21T20:37:36.716Z,98.80
2022-08-21T20:40:11.614Z,98.60
2022-08-21T20:42:44.882Z,97.90
2022-08-21T20:45:19.735Z,98.80
2022-08-21T20:47:52.674Z,99.10
2022-08-21T20:50:28.368Z,99.20
2022-08-21T20:53:09.897Z,99.90
2022-08-21T20:55:46.516Z,99.80
2022-08-21T20:58:29.904Z,99.90
2022-08-21T21:01:04.834Z,99.90
2022-08-21T21:03:42.885Z,99.90
2022-08-21T21:06:19.234Z,99.90
2022-08-21T21:08:55.923Z,99.90
2022-08-21T21:11:33.658Z,99.90
2022-08-21T21:14:07.827Z,99.90
2022-08-21T21:16:50.764Z,99.90
2022-08-21T21:19:38.962Z,99.90
2022-08-21T21:22:15.002Z,99.90
2022-08-21T21:25:09.364Z,99.90
2022-08-21T21:30:46.641Z,99.90
2022-08-21T21:33:17.172Z,99.90
2022-08-21T21:35:52.770Z,99.90
2022-08-21T21:38:32.870Z,99.90
2022-08-21T21:41:18.742Z,99.90
2022-08-21T21:44:21.261Z,99.90
2022-08-21T21:47:02.202Z,99.90
2022-08-21T21:50:01.369Z,99.90
2022-08-21T21:53:12.546Z,99.90
2022-08-21T21:56:13.807Z,99.90
2022-08-21T21:59:09.918Z,99.90
2022-08-21T22:01:48.218Z,99.90
2022-08-21T22:04:28.659Z,99.90
2022-08-21T22:07:10.055Z,99.90
2022-08-21T22:09:47.535Z,99.90
2022-08-21T22:12:42.177Z,99.90
2022-08-21T22:15:27.516Z,99.90
2022-08-21T22:18:08.454Z,99.90
2022-08-21T22:20:47.699Z,99.90
2022-08-21T22:23:22.734Z,99.90
2022-08-21T22:26:00.029Z,99.90
2022-08-21T22:28:36.839Z,99.90
2022-08-21T22:31:24.517Z,99.90
2022-08-21T22:37:04.335Z,99.90
2022-08-21T22:39:39.153Z,99.90
2022-08-21T22:42:15.267Z,99.90
2022-08-21T22:44:56.419Z,99.90
2022-08-21T22:47:38.762Z,99.90
2022-08-21T22:50:29.089Z,99.90
2022-08-21T22:53:03.948Z,99.90
2022-08-21T22:55:43.611Z,99.90
2022-08-21T22:58:20.533Z,99.90
2022-08-21T23:00:57.964Z,99.90
2022-08-21T23:03:35.984Z,99.90
2022-08-21T23:06:24.268Z,99.90
2022-08-21T23:08:55.658Z,99.90
2022-08-21T23:11:42.715Z,99.90
2022-08-21T23:14:14.246Z,99.90
2022-08-21T23:17:02.492Z,99.90
2022-08-21T23:19:59.964Z,99.90
2022-08-21T23:22:47.564Z,99.90
2022-08-21T23:25:42.235Z,99.90
2022-08-21T23:28:27.963Z,99.90
2022-08-21T23:31:20.213Z,99.90
2022-08-21T23:34:19.687Z,99.90
2022-08-21T23:37:49.124Z,99.90
2022-08-21T23:40:50.568Z,99.90
2022-08-21T23:43:49.496Z,99.90
2022-08-21T23:46:37.906Z,99.90
2022-08-21T23:49:30.657Z,99.90
2022-08-21T23:52:17.371Z,99.90
2022-08-21T23:55:18.971Z,99.90
2022-08-21T23:58:05.095Z,99.90
